Time;durP1;ratioP1;P1;durP2;ratioP2;P2;SDS_P1;SDS_P2;PMS_P1;PMS_P2;Temp;Humidity;BMP_temperature;BMP_pressure;BME280_temperature;BME280_humidity;BME280_pressure;Samples;Min_cycle;Max_cycle;Signal;HPM_P1;HPM_P2
2024/01/22 05:05:46;;;;;;;62.05;35.42;;;;;;;-0.49;78.71;102337.00;5605023;31;79546;-56
2024/01/22 05:08:49;;;;;;;61.33;36.70;;;;;;;-0.49;78.71;102337.00;5588715;31;33593;-56
2024/01/22 05:11:52;;;;;;;54.47;34.63;;;;;;;-0.99;81.82;102328.03;5603241;31;33661;-56
2024/01/22 05:14:54;;;;;;;60.92;35.38;;;;;;;-0.93;77.69;102326.56;5602206;31;33751;-56
2024/01/22 05:17:57;;;;;;;56.20;35.80;;;;;;;-0.95;77.97;102318.84;5596730;31;33590;-56
2024/01/22 05:20:59;;;;;;;56.28;36.17;;;;;;;-1.03;78.43;102321.41;5603297;31;33660;-56
2024/01/22 05:24:02;;;;;;;52.58;33.75;;;;;;;-1.05;77.22;102322.56;5602958;31;33559;-56
2024/01/22 05:27:08;;;;;;;56.40;35.28;;;;;;;-1.18;85.30;102309.81;5602316;31;33076;-56
2024/01/22 05:30:11;;;;;;;57.28;35.67;;;;;;;-1.06;83.77;102313.84;5602515;31;33655;-56
2024/01/22 05:33:13;;;;;;;54.38;33.58;;;;;;;-1.02;78.04;102302.03;5603063;31;33784;-56
2024/01/22 05:36:16;;;;;;;284.27;51.78;;;;;;;-1.13;88.55;102304.09;5593262;31;33742;-56
2024/01/22 05:39:18;;;;;;;58.00;36.92;;;;;;;-1.15;100.00;102293.72;5585511;31;34253;-56
2024/01/22 05:42:21;;;;;;;373.65;59.92;;;;;;;-1.03;100.00;102300.34;5582931;31;34193;-56
2024/01/22 05:45:24;;;;;;;54.33;34.92;;;;;;;-0.68;100.00;102292.47;5576920;32;33708;-56
2024/01/22 05:48:26;;;;;;;57.45;35.00;;;;;;;-0.78;86.60;102290.78;5577124;32;33390;-59
2024/01/22 05:51:29;;;;;;;51.45;35.20;;;;;;;-0.69;83.09;102291.66;5582600;31;33698;-59
2024/01/22 05:54:31;;;;;;;52.03;34.40;;;;;;;-0.79;79.87;102291.78;5582963;32;33249;-59
2024/01/22 05:57:34;;;;;;;53.22;34.65;;;;;;;-0.73;78.66;102303.47;5583159;31;34299;-59
2024/01/22 06:00:37;;;;;;;52.00;33.75;;;;;;;-0.87;97.14;102294.34;5582097;31;33457;-59
2024/01/22 06:03:40;;;;;;;56.03;35.13;;;;;;;-0.92;89.21;102295.84;5582739;32;33556;-59
2024/01/22 06:06:42;;;;;;;50.72;34.15;;;;;;;-0.85;81.52;102302.13;5575363;31;33742;-60
2024/01/22 06:09:45;;;;;;;57.42;36.22;;;;;;;-0.91;89.98;102294.84;5571386;32;34349;-59
2024/01/22 06:13:01;;;;;;;54.83;35.63;;;;;;;-0.66;93.52;102291.34;5574022;31;34283;-59
2024/01/22 06:16:04;;;;;;;56.05;34.35;;;;;;;-0.73;80.33;102290.28;5561479;32;34339;-59
2024/01/22 06:19:06;;;;;;;55.12;34.92;;;;;;;-0.79;94.40;102283.06;5566081;32;33618;-60
2024/01/22 06:22:10;;;;;;;52.00;33.22;;;;;;;-0.87;87.05;102286.47;5553274;32;33538;-59
2024/01/22 06:25:12;;;;;;;58.50;37.38;;;;;;;-1.04;85.82;102287.37;5556162;32;33427;-59
2024/01/22 06:28:15;;;;;;;54.30;35.53;;;;;;;-1.01;82.43;102287.06;5563023;32;33987;-58
2024/01/22 06:31:18;;;;;;;55.63;35.67;;;;;;;-0.80;91.70;102286.66;5564925;32;33820;-59
2024/01/22 06:34:21;;;;;;;59.60;36.33;;;;;;;-0.71;94.39;102297.06;5568173;32;34308;-59
2024/01/22 06:37:26;;;;;;;58.20;36.55;;;;;;;-0.60;98.72;102298.56;5558922;32;33694;-59
2024/01/22 06:40:33;;;;;;;72.97;39.05;;;;;;;-0.66;98.72;102298.37;5560923;32;34405;-59
2024/01/22 06:43:35;;;;;;;92.57;37.95;;;;;;;-0.69;100.00;102294.28;5554280;32;33588;-58
2024/01/22 06:46:37;;;;;;;342.83;58.75;;;;;;;-0.26;100.00;102298.53;5556215;32;34291;-59
2024/01/22 06:49:39;;;;;;;85.20;37.13;;;;;;;-0.42;100.00;102309.03;5560463;32;33356;-59
2024/01/22 06:52:43;;;;;;;67.25;38.30;;;;;;;-0.47;100.00;102314.75;5565306;32;34378;-59
2024/01/22 06:55:45;;;;;;;57.13;35.97;;;;;;;-0.41;100.00;102310.66;5556050;32;33630;-59
2024/01/22 06:58:47;;;;;;;937.12;112.78;;;;;;;-0.54;96.68;102308.47;5569373;32;32246;-55
2024/01/22 07:01:49;;;;;;;57.80;37.28;;;;;;;0.11;100.00;102321.00;5557852;32;34257;-55
2024/01/22 07:04:55;;;;;;;60.40;36.67;;;;;;;-0.43;93.30;102314.44;5560282;32;33775;-55
2024/01/22 07:07:58;;;;;;;66.93;39.15;;;;;;;-0.05;100.00;102326.25;5556067;32;33726;-55
2024/01/22 07:11:05;;;;;;;58.78;36.72;;;;;;;-0.33;89.98;102320.41;5557056;32;33613;-54
2024/01/22 07:14:08;;;;;;;59.17;36.95;;;;;;;-0.27;91.03;102327.66;5563500;32;33856;-55
2024/01/22 07:17:11;;;;;;;61.95;38.92;;;;;;;-0.43;84.51;102325.84;5563673;32;33512;-55
2024/01/22 07:20:16;;;;;;;61.80;37.50;;;;;;;-0.01;100.00;102331.03;5560985;32;33943;-55
2024/01/22 07:23:19;;;;;;;55.53;36.55;;;;;;;0.22;100.00;102331.22;5561100;32;33713;-55
2024/01/22 07:26:21;;;;;;;58.60;35.63;;;;;;;-0.35;85.12;102325.84;5563564;32;33793;-55
2024/01/22 07:29:24;;;;;;;119.32;40.20;;;;;;;-0.39;88.56;102332.44;5566214;32;34368;-55
2024/01/22 07:32:27;;;;;;;58.28;38.05;;;;;;;0.35;100.00;102335.19;5566133;32;34327;-55
2024/01/22 07:35:29;;;;;;;63.42;37.95;;;;;;;0.82;100.00;102332.69;5558462;32;33224;-54
2024/01/22 07:38:33;;;;;;;376.67;64.20;;;;;;;0.27;89.80;102343.94;5556410;32;34395;-55
2024/01/22 07:41:38;;;;;;;63.83;37.78;;;;;;;0.85;100.00;102340.28;5567925;32;33662;-55
2024/01/22 07:44:41;;;;;;;133.87;44.08;;;;;;;0.63;100.00;102340.94;5563762;32;33562;-55
2024/01/22 07:47:43;;;;;;;62.38;38.50;;;;;;;0.76;100.00;102346.53;5565690;32;34298;-55
2024/01/22 07:50:46;;;;;;;58.20;35.53;;;;;;;0.19;86.21;102349.19;5566197;32;33617;-54
2024/01/22 07:53:50;;;;;;;278.02;50.53;;;;;;;0.69;100.00;102351.66;5560119;32;33627;-55
2024/01/22 07:56:53;;;;;;;59.13;37.15;;;;;;;0.92;100.00;102346.53;5563037;32;33654;-55
2024/01/22 07:59:56;;;;;;;1388.65;148.05;;;;;;;0.34;85.15;102346.75;5559563;32;33144;-55
2024/01/22 08:02:58;;;;;;;361.62;57.00;;;;;;;0.95;100.00;102334.81;5563051;32;33747;-56
2024/01/22 08:06:01;;;;;;;362.00;63.60;;;;;;;0.76;100.00;102337.81;5556460;32;34460;-56
2024/01/22 08:09:03;;;;;;;109.32;44.40;;;;;;;0.87;100.00;102334.84;5559475;32;33671;-56
2024/01/22 08:12:06;;;;;;;56.15;36.67;;;;;;;0.98;100.00;102338.94;5561882;32;33710;-56
2024/01/22 08:15:14;;;;;;;53.50;34.78;;;;;;;0.66;98.60;102327.41;5563884;32;33398;-56
2024/01/22 08:18:19;;;;;;;53.33;35.95;;;;;;;0.57;87.40;102334.53;5560186;32;33624;-57
2024/01/22 08:21:22;;;;;;;58.72;35.95;;;;;;;0.39;85.42;102339.16;5564090;32;34354;-56
2024/01/22 08:24:24;;;;;;;57.62;38.00;;;;;;;0.58;100.00;102338.00;5566846;32;34239;-58
2024/01/22 08:27:27;;;;;;;89.13;41.78;;;;;;;1.24;100.00;102328.13;5562698;32;34383;-56
2024/01/22 08:30:29;;;;;;;68.00;37.40;;;;;;;1.51;100.00;102321.59;5558603;32;33644;-56
2024/01/22 08:33:31;;;;;;;112.75;41.85;;;;;;;0.91;100.00;102312.38;5564907;32;33554;-56
2024/01/22 08:36:34;;;;;;;55.65;37.67;;;;;;;1.34;100.00;102316.38;5556154;32;33479;-56
2024/01/22 08:39:37;;;;;;;55.35;35.55;;;;;;;1.15;100.00;102322.03;5564876;32;33246;-56
2024/01/22 08:42:39;;;;;;;60.88;37.80;;;;;;;1.23;100.00;102324.69;5561191;32;33724;-56
2024/01/22 08:45:42;;;;;;;60.42;38.15;;;;;;;1.50;100.00;102333.97;5565911;32;33786;-56
2024/01/22 08:48:45;;;;;;;53.47;35.97;;;;;;;1.16;100.00;102329.00;5555771;32;34433;-56
2024/01/22 08:51:48;;;;;;;55.47;35.42;;;;;;;0.94;80.74;102338.44;5562814;32;34345;-56
2024/01/22 08:54:50;;;;;;;52.47;35.85;;;;;;;0.72;81.69;102334.69;5560674;32;33564;-56
2024/01/22 08:57:54;;;;;;;53.87;35.80;;;;;;;1.14;100.00;102323.88;5561750;32;33568;-57
2024/01/22 09:00:59;;;;;;;57.28;37.17;;;;;;;1.07;100.00;102328.19;5560577;32;33605;-56
2024/01/22 09:04:02;;;;;;;59.70;36.83;;;;;;;0.89;92.43;102323.12;5562141;32;34484;-57
2024/01/22 09:07:05;;;;;;;57.33;38.30;;;;;;;1.05;100.00;102319.59;5567129;32;33505;-56
2024/01/22 09:10:07;;;;;;;57.92;38.17;;;;;;;1.28;100.00;102313.59;5566685;32;33610;-56
2024/01/22 09:13:10;;;;;;;56.67;37.13;;;;;;;1.59;100.00;102314.44;5565873;32;33751;-56
2024/01/22 09:16:14;;;;;;;58.65;37.75;;;;;;;1.32;100.00;102299.84;5560170;32;34280;-56
2024/01/22 09:19:17;;;;;;;58.55;36.80;;;;;;;1.88;100.00;102302.38;5554948;32;33614;-59
2024/01/22 09:22:21;;;;;;;60.03;35.88;;;;;;;1.82;94.96;102298.63;5559595;32;33578;-59
2024/01/22 09:25:23;;;;;;;57.35;36.78;;;;;;;1.43;95.23;102284.63;5559323;32;34278;-59
2024/01/22 09:28:30;;;;;;;53.90;35.42;;;;;;;1.50;100.00;102283.75;5559012;32;33587;-60
2024/01/22 09:31:34;;;;;;;56.83;37.22;;;;;;;1.14;77.70;102275.50;5562483;32;32169;-59
2024/01/22 09:34:38;;;;;;;53.65;37.35;;;;;;;1.67;100.00;102273.09;5559966;32;33202;-58
2024/01/22 09:37:40;;;;;;;56.40;37.15;;;;;;;1.71;100.00;102272.56;5558770;32;33440;-58
2024/01/22 09:40:43;;;;;;;57.72;36.97;;;;;;;1.59;89.50;102269.50;5566121;32;32950;-59
2024/01/22 09:43:46;;;;;;;161.93;45.83;;;;;;;2.11;100.00;102265.34;5566117;32;34339;-60
2024/01/22 09:46:49;;;;;;;62.72;39.88;;;;;;;2.28;100.00;102264.19;5561449;32;33806;-59
2024/01/22 09:49:52;;;;;;;56.42;38.25;;;;;;;1.93;84.85;102257.72;5560504;32;33501;-59
2024/01/22 09:53:08;;;;;;;59.38;39.88;;;;;;;2.36;100.00;102247.44;5566107;32;33641;-59
2024/01/22 09:56:11;;;;;;;55.70;39.28;;;;;;;2.07;100.00;102234.94;5566219;32;33092;-59
2024/01/22 09:59:19;;;;;;;58.38;36.95;;;;;;;2.45;100.00;102233.13;5567904;32;34374;-59
2024/01/22 10:02:22;;;;;;;58.53;37.10;;;;;;;2.19;100.00;102214.19;5563942;32;34356;-59
2024/01/22 10:05:24;;;;;;;57.85;38.70;;;;;;;2.67;100.00;102206.75;5560615;32;33537;-59
2024/01/22 10:08:27;;;;;;;56.78;37.50;;;;;;;2.63;100.00;102198.34;5561135;32;34391;-59
2024/01/22 10:11:31;;;;;;;54.60;36.13;;;;;;;2.41;100.00;102196.59;5567131;32;33674;-59
2024/01/22 10:14:41;;;;;;;54.30;35.40;;;;;;;2.03;76.85;102188.69;5564050;32;34227;-59
2024/01/22 10:17:44;;;;;;;53.22;36.50;;;;;;;2.22;100.00;102184.69;5556417;32;33757;-59
2024/01/22 10:20:50;;;;;;;53.95;33.10;;;;;;;2.17;88.91;102184.44;5561320;32;33655;-59
2024/01/22 10:24:00;;;;;;;53.58;35.17;;;;;;;2.32;78.57;102182.63;5566120;32;33670;-59
2024/01/22 10:27:13;;;;;;;58.55;36.28;;;;;;;2.80;100.00;102180.44;5565864;32;33755;-58
2024/01/22 10:30:17;;;;;;;50.25;34.47;;;;;;;3.01;100.00;102182.31;5563403;32;33774;-57
2024/01/22 10:33:20;;;;;;;52.62;34.72;;;;;;;2.58;92.65;102172.44;5559014;32;33822;-57
2024/01/22 10:36:22;;;;;;;52.95;34.67;;;;;;;2.63;100.00;102171.03;5567161;32;33015;-57
2024/01/22 10:39:25;;;;;;;57.95;34.60;;;;;;;2.48;78.28;102163.09;5567274;32;33684;-56
2024/01/22 10:42:27;;;;;;;54.50;36.45;;;;;;;2.82;100.00;102160.72;5548587;32;35039;-57
2024/01/22 10:45:31;;;;;;;48.47;34.25;;;;;;;3.50;100.00;102157.78;5558996;32;34277;-56
2024/01/22 10:48:34;;;;;;;54.13;35.08;;;;;;;3.38;100.00;102141.56;5559977;32;33162;-57
2024/01/22 10:51:46;;;;;;;49.53;35.72;;;;;;;3.38;98.55;102116.84;5561146;32;33721;-57
2024/01/22 10:54:49;;;;;;;49.13;32.13;;;;;;;3.87;100.00;102114.22;5558903;32;34382;-57
2024/01/22 10:57:56;;;;;;;51.88;33.72;;;;;;;3.08;72.05;102103.75;5560747;32;34469;-57
2024/01/22 11:01:09;;;;;;;53.17;35.38;;;;;;;3.42;91.34;102096.94;5561967;32;33672;-56
2024/01/22 11:04:12;;;;;;;50.92;34.42;;;;;;;3.44;86.77;102085.09;5568622;32;33708;-57
2024/01/22 11:07:17;;;;;;;50.90;35.33;;;;;;;3.51;90.82;102091.31;5562925;32;34364;-58
2024/01/22 11:10:20;;;;;;;49.85;35.42;;;;;;;3.95;100.00;102084.88;5566927;32;34310;-56
2024/01/22 11:13:23;;;;;;;51.70;34.97;;;;;;;3.71;80.23;102083.50;5565713;32;33766;-57
2024/01/22 11:16:25;;;;;;;51.85;35.90;;;;;;;3.53;87.82;102078.66;5565304;32;32435;-57
2024/01/22 11:19:28;;;;;;;52.08;34.65;;;;;;;3.57;91.73;102072.97;5563431;32;32333;-57
2024/01/22 11:22:30;;;;;;;54.67;37.47;;;;;;;3.64;96.97;102068.53;5567696;32;34328;-57
2024/01/22 11:25:34;;;;;;;57.15;36.45;;;;;;;3.52;88.88;102057.66;5563269;32;34377;-57
2024/01/22 11:28:36;;;;;;;51.45;35.30;;;;;;;3.74;100.00;102055.75;5562338;32;33775;-57
2024/01/22 11:31:39;;;;;;;58.65;38.10;;;;;;;3.72;86.21;102047.19;5561105;32;34154;-56
2024/01/22 11:34:45;;;;;;;54.03;36.95;;;;;;;3.84;98.11;102034.19;5562715;32;33579;-57
2024/01/22 11:37:51;;;;;;;57.90;37.60;;;;;;;3.95;97.67;102029.16;5558175;32;33548;-57
2024/01/22 11:40:55;;;;;;;61.60;39.03;;;;;;;4.04;94.72;102021.88;5568878;32;33170;-57
2024/01/22 11:44:01;;;;;;;57.05;37.47;;;;;;;4.04;80.57;102013.91;5564543;32;33659;-57
2024/01/22 11:47:10;;;;;;;51.65;37.53;;;;;;;4.06;100.00;102009.22;5559356;32;31836;-57
2024/01/22 11:50:13;;;;;;;59.00;38.75;;;;;;;4.19;100.00;102011.12;5554666;32;34319;-57
2024/01/22 11:53:15;;;;;;;61.35;38.05;;;;;;;4.37;100.00;101999.94;5556892;32;32074;-57
2024/01/22 11:56:22;;;;;;;58.92;38.78;;;;;;;4.43;100.00;101999.97;5550216;32;34308;-57
2024/01/22 11:59:24;;;;;;;56.80;36.65;;;;;;;4.47;91.24;101987.94;5558682;32;33681;-56
2024/01/22 12:02:27;;;;;;;60.55;40.15;;;;;;;4.08;84.00;101975.34;5565337;32;34412;-56
2024/01/22 12:05:29;;;;;;;62.70;39.25;;;;;;;4.11;90.61;101979.44;5561842;32;33731;-57
2024/01/22 12:08:33;;;;;;;64.05;42.17;;;;;;;4.18;83.83;101965.19;5562114;32;33988;-57
2024/01/22 12:11:37;;;;;;;60.50;39.53;;;;;;;3.73;84.08;101964.75;5564287;32;33700;-57
2024/01/22 12:14:39;;;;;;;62.30;39.92;;;;;;;3.97;86.99;101962.63;5562215;32;33732;-57
2024/01/22 12:17:43;;;;;;;64.50;41.50;;;;;;;4.19;97.49;101968.66;5561829;32;33599;-57
2024/01/22 12:20:46;;;;;;;61.03;40.30;;;;;;;4.17;94.48;101968.00;5563252;32;34487;-57
2024/01/22 12:23:49;;;;;;;68.03;40.67;;;;;;;4.10;93.70;101954.72;5556638;32;33820;-57
2024/01/22 12:26:52;;;;;;;65.62;40.65;;;;;;;3.82;77.17;101948.69;5560793;32;33695;-57
2024/01/22 12:30:03;;;;;;;64.90;40.85;;;;;;;3.81;92.72;101955.00;5556159;32;34300;-57
2024/01/22 12:33:05;;;;;;;67.85;40.42;;;;;;;3.59;85.68;101960.41;5560062;32;34506;-57
2024/01/22 12:36:10;;;;;;;64.47;41.05;;;;;;;3.94;91.06;101963.88;5554751;32;33830;-57
2024/01/22 12:39:19;;;;;;;61.08;38.50;;;;;;;3.63;85.16;101963.47;5559011;32;33723;-57
2024/01/22 12:42:23;;;;;;;58.60;39.78;;;;;;;3.75;93.53;101952.13;5559039;32;32178;-57
2024/01/22 12:45:26;;;;;;;62.22;38.53;;;;;;;3.68;87.14;101963.72;5561207;31;33824;-57
2024/01/22 12:48:29;;;;;;;65.65;40.38;;;;;;;3.91;98.99;101952.81;5560716;32;33644;-56
2024/01/22 12:51:32;;;;;;;61.58;38.20;;;;;;;3.50;76.95;101951.78;5562887;32;34383;-56
2024/01/22 12:54:35;;;;;;;62.85;40.12;;;;;;;3.52;83.36;101963.00;5555360;32;33655;-56
2024/01/22 12:57:38;;;;;;;63.55;41.85;;;;;;;3.68;94.78;101967.19;5562379;32;33885;-56
2024/01/22 13:00:42;;;;;;;61.80;39.55;;;;;;;3.35;90.30;101972.28;5563884;32;33169;-56
2024/01/22 13:03:45;;;;;;;58.25;37.97;;;;;;;3.00;72.51;101976.69;5560700;32;33687;-57
2024/01/22 13:06:49;;;;;;;59.70;38.45;;;;;;;3.21;100.00;101976.66;5559001;32;34290;-56
2024/01/22 13:09:51;;;;;;;60.53;38.85;;;;;;;3.58;100.00;101966.72;5556390;32;34327;-56
2024/01/22 13:12:54;;;;;;;61.40;39.28;;;;;;;3.77;100.00;101970.47;5548403;32;33708;-56
2024/01/22 13:15:57;;;;;;;60.35;39.33;;;;;;;3.67;100.00;101968.19;5548823;32;33717;-56
2024/01/22 13:19:16;;;;;;;64.68;39.65;;;;;;;3.74;92.79;101961.09;5556709;32;32130;-56
2024/01/22 13:22:21;;;;;;;58.53;37.55;;;;;;;3.69;95.56;101955.56;5566026;32;34410;-56
2024/01/22 13:25:24;;;;;;;58.15;36.38;;;;;;;3.38;83.46;101952.50;5561553;32;33651;-57
2024/01/22 13:28:26;;;;;;;64.78;37.40;;;;;;;3.62;92.21;101957.34;5561007;32;34359;-56
2024/01/22 13:31:29;;;;;;;65.72;38.72;;;;;;;3.42;100.00;101959.06;5569345;32;34346;-56
2024/01/22 13:34:32;;;;;;;61.63;38.95;;;;;;;3.46;100.00;101955.81;5569406;32;33184;-56
2024/01/22 13:37:36;;;;;;;59.50;37.03;;;;;;;2.93;86.38;101952.78;5561299;32;34212;-56
2024/01/22 13:40:38;;;;;;;58.92;37.38;;;;;;;3.41;100.00;101934.41;5564953;32;34331;-56
2024/01/22 13:43:42;;;;;;;64.82;36.97;;;;;;;3.40;100.00;101930.09;5557226;32;34391;-56
2024/01/22 13:46:44;;;;;;;66.70;37.95;;;;;;;3.52;100.00;101928.53;5567939;32;33957;-56
2024/01/22 13:49:48;;;;;;;61.08;37.30;;;;;;;3.55;100.00;101915.91;5554941;32;33766;-56
2024/01/22 13:52:51;;;;;;;55.63;35.05;;;;;;;3.18;83.81;101921.41;5553886;32;33680;-56
2024/01/22 13:55:54;;;;;;;58.42;35.65;;;;;;;3.08;100.00;101926.22;5551215;32;33591;-56
2024/01/22 13:58:56;;;;;;;65.45;38.80;;;;;;;3.02;100.00;101921.69;5555538;32;34393;-55
2024/01/22 14:01:59;;;;;;;61.42;37.97;;;;;;;3.04;100.00;101919.62;5556444;32;33572;-56
2024/01/22 14:05:03;;;;;;;63.87;38.63;;;;;;;3.25;100.00;101906.34;5550777;32;33752;-55
2024/01/22 14:08:08;;;;;;;67.45;38.17;;;;;;;3.19;100.00;101898.37;5555901;32;33656;-55
2024/01/22 14:11:10;;;;;;;84.55;37.72;;;;;;;2.73;90.41;101894.34;5568916;32;34386;-55
2024/01/22 14:14:13;;;;;;;76.65;38.90;;;;;;;3.13;100.00;101893.84;5558247;32;34323;-55
2024/01/22 14:17:24;;;;;;;69.20;38.03;;;;;;;2.91;100.00;101898.34;5551556;32;33709;-55
2024/01/22 14:20:27;;;;;;;62.35;36.10;;;;;;;2.86;91.66;101900.78;5550759;32;33661;-55
2024/01/22 14:23:30;;;;;;;61.15;34.95;;;;;;;2.57;100.00;101891.97;5566975;32;33688;-55
2024/01/22 14:26:32;;;;;;;65.55;37.17;;;;;;;2.68;100.00;101888.81;5569926;32;33210;-54
2024/01/22 14:29:35;;;;;;;64.15;34.80;;;;;;;2.69;97.46;101889.62;5570122;32;33534;-54
2024/01/22 14:32:37;;;;;;;65.53;37.45;;;;;;;2.67;100.00;101892.44;5568648;32;33712;-55
2024/01/22 14:35:43;;;;;;;68.15;33.90;;;;;;;2.22;82.00;101891.84;5569228;32;33607;-55
2024/01/22 14:38:47;;;;;;;70.35;38.80;;;;;;;1.81;98.04;101878.34;5562618;32;34402;-54
2024/01/22 14:41:50;;;;;;;66.57;35.35;;;;;;;1.92;100.00;101883.16;5566745;32;33590;-55
2024/01/22 14:44:52;;;;;;;66.20;35.50;;;;;;;2.32;100.00;101878.28;5569073;31;34405;-54
2024/01/22 14:47:55;;;;;;;67.35;36.97;;;;;;;2.35;95.46;101869.94;5569955;32;34316;-54
2024/01/22 14:51:02;;;;;;;66.90;37.63;;;;;;;2.09;97.57;101873.19;5563524;32;34281;-55
2024/01/22 14:54:04;;;;;;;;;;;;;;;2.07;91.36;101868.06;5555145;32;33615;-55
2024/01/22 14:57:07;;;;;;;62.80;33.55;;;;;;;2.07;95.67;101854.84;5557850;32;34007;-54
2024/01/22 15:00:12;;;;;;;72.70;36.92;;;;;;;2.27;100.00;101859.50;5567451;32;33471;-56
2024/01/22 15:03:14;;;;;;;63.50;34.65;;;;;;;2.66;100.00;101845.81;5565024;32;33776;-54
2024/01/22 15:06:16;;;;;;;68.75;35.50;;;;;;;2.24;87.03;101828.12;5565201;32;33620;-54
2024/01/22 15:09:19;;;;;;;65.30;33.78;;;;;;;2.23;86.75;101837.09;5568406;32;34210;-56
2024/01/22 15:12:22;;;;;;;62.72;33.72;;;;;;;2.22;94.70;101836.28;5566261;32;33764;-57
2024/01/22 15:15:24;;;;;;;65.70;34.75;;;;;;;2.53;100.00;101821.88;5555038;32;34397;-57
2024/01/22 15:18:27;;;;;;;157.73;41.15;;;;;;;1.93;87.29;101820.50;5556090;32;33937;-56
2024/01/22 15:21:30;;;;;;;62.42;34.78;;;;;;;2.37;100.00;101820.31;5569570;32;33769;-57
2024/01/22 15:24:33;;;;;;;67.18;33.25;;;;;;;2.24;90.75;101817.53;5562603;32;33752;-56
2024/01/22 15:27:35;;;;;;;64.37;34.33;;;;;;;2.09;90.42;101817.63;5567970;32;34270;-56
2024/01/22 15:30:38;;;;;;;66.53;34.97;;;;;;;2.21;100.00;101816.09;5560906;32;34615;-56
2024/01/22 15:33:41;;;;;;;69.45;34.53;;;;;;;2.44;100.00;101793.91;5561909;32;33589;-56
2024/01/22 15:36:44;;;;;;;61.40;32.85;;;;;;;2.39;95.34;101783.91;5568911;32;33825;-55
2024/01/22 15:39:49;;;;;;;63.97;34.63;;;;;;;2.31;88.94;101766.31;5560926;32;34282;-56
2024/01/22 15:42:52;;;;;;;61.67;34.80;;;;;;;2.28;87.80;101768.53;5555790;32;33677;-56
2024/01/22 15:45:54;;;;;;;66.15;34.22;;;;;;;2.26;99.12;101773.22;5551870;32;33664;-57
2024/01/22 15:48:57;;;;;;;65.62;35.05;;;;;;;2.03;86.24;101762.81;5556547;32;33307;-57
2024/01/22 15:52:01;;;;;;;59.00;34.95;;;;;;;2.45;100.00;101750.53;5567091;32;32284;-57
2024/01/22 15:55:04;;;;;;;63.40;34.88;;;;;;;2.35;85.12;101757.00;5564170;32;33600;-57
2024/01/22 15:58:07;;;;;;;63.42;33.95;;;;;;;2.51;95.52;101761.16;5551089;32;34366;-57
2024/01/22 16:01:09;;;;;;;60.25;35.00;;;;;;;2.68;100.00;101750.28;5569428;32;34356;-56
2024/01/22 16:04:14;;;;;;;62.42;35.17;;;;;;;2.59;99.37;101757.56;5569099;32;34392;-56
2024/01/22 16:07:17;;;;;;;61.90;35.97;;;;;;;2.70;100.00;101761.50;5569018;32;33686;-57
2024/01/22 16:10:24;;;;;;;60.10;35.42;;;;;;;2.61;97.95;101765.31;5564564;32;34471;-56
2024/01/22 16:13:27;;;;;;;64.07;35.88;;;;;;;2.79;100.00;101763.00;5558154;32;33665;-56
2024/01/22 16:16:30;;;;;;;67.80;38.40;;;;;;;2.42;85.23;101756.22;5565754;32;33574;-57
2024/01/22 16:19:34;;;;;;;72.93;39.20;;;;;;;2.53;98.69;101747.75;5563396;32;33408;-55
2024/01/22 16:22:40;;;;;;;69.53;37.20;;;;;;;2.80;100.00;101744.25;5549444;32;33743;-54
2024/01/22 16:25:43;;;;;;;63.95;35.50;;;;;;;2.44;85.10;101733.03;5561994;32;34240;-55
2024/01/22 16:28:45;;;;;;;66.35;37.95;;;;;;;2.64;100.00;101727.88;5567739;32;33593;-54
